Time;durP1;ratioP1;P1;durP2;ratioP2;P2;SDS_P1;SDS_P2;PMS_P1;PMS_P2;Temp;Humidity;BMP_temperature;BMP_pressure;BME280_temperature;BME280_humidity;BME280_pressure;Samples;Min_cycle;Max_cycle;Signal;HPM_P1;HPM_P2
2021/03/12 00:00:45;;;;;;;5.03;1.40;;;9.90;99.90;;;;;;5011911;28;20049;-75
2021/03/12 00:03:20;;;;;;;5.15;1.17;;;9.90;99.90;;;;;;5011854;28;20478;-75
2021/03/12 00:05:50;;;;;;;3.17;1.00;;;10.00;99.90;;;;;;5011560;28;20033;-75
2021/03/12 00:08:17;;;;;;;5.57;1.35;;;10.00;99.90;;;;;;5012249;28;20101;-75
2021/03/12 00:10:43;;;;;;;9.02;1.30;;;10.00;99.90;;;;;;5003900;28;20026;-75
2021/03/12 00:13:09;;;;;;;4.25;1.17;;;9.90;99.90;;;;;;5012025;28;20085;-75
2021/03/12 00:15:35;;;;;;;10.90;2.50;;;9.90;99.90;;;;;;5013698;28;20058;-75
2021/03/12 00:18:01;;;;;;;4.70;1.27;;;9.80;99.90;;;;;;5015292;28;20447;-75
2021/03/12 00:20:31;;;;;;;5.03;1.83;;;9.90;99.90;;;;;;5015695;28;20113;-75
2021/03/12 00:22:57;;;;;;;8.70;1.73;;;9.80;99.90;;;;;;5014119;28;20113;-75
2021/03/12 00:25:33;;;;;;;4.72;0.95;;;9.90;99.90;;;;;;5014857;28;20108;-75
2021/03/12 00:27:58;;;;;;;10.20;1.75;;;9.90;99.90;;;;;;5015305;28;20036;-75
2021/03/12 00:30:24;;;;;;;7.05;1.95;;;9.70;99.90;;;;;;5015064;28;20026;-75
2021/03/12 00:32:50;;;;;;;7.72;1.50;;;9.70;99.90;;;;;;5015227;28;20030;-75
2021/03/12 00:35:17;;;;;;;6.45;2.20;;;9.40;99.90;;;;;;5014607;28;20029;-75
2021/03/12 00:37:43;;;;;;;1.35;0.60;;;9.20;99.90;;;;;;5015269;28;20034;-75
2021/03/12 00:40:23;;;;;;;1.35;0.52;;;9.00;99.90;;;;;;5015094;28;20462;-75
2021/03/12 00:42:49;;;;;;;1.33;0.30;;;9.00;99.90;;;;;;5014930;28;20076;-75
2021/03/12 00:45:17;;;;;;;3.85;0.50;;;9.20;99.90;;;;;;5014537;28;20026;-75
2021/03/12 00:47:44;;;;;;;0.65;0.50;;;9.20;99.90;;;;;;5015328;28;20394;-75
2021/03/12 00:50:12;;;;;;;1.35;0.50;;;9.40;99.90;;;;;;5014738;28;20081;-75
2021/03/12 00:52:38;;;;;;;4.25;0.80;;;9.50;99.90;;;;;;5015345;28;20038;-75
2021/03/12 00:55:06;;;;;;;4.60;0.93;;;9.60;99.90;;;;;;5014146;28;20496;-74
2021/03/12 00:57:32;;;;;;;4.35;1.20;;;9.60;99.90;;;;;;5015085;28;20080;-75
2021/03/12 00:59:57;;;;;;;2.60;1.05;;;9.70;99.90;;;;;;5014258;28;20033;-75
2021/03/12 01:02:23;;;;;;;5.07;0.98;;;9.70;99.90;;;;;;5014509;28;20434;-75
2021/03/12 01:04:49;;;;;;;3.90;1.02;;;9.70;99.90;;;;;;5014291;28;20037;-74
2021/03/12 01:07:20;;;;;;;2.53;0.90;;;9.70;99.90;;;;;;5014002;28;20084;-75
2021/03/12 01:09:46;;;;;;;3.38;1.08;;;9.50;99.90;;;;;;5014466;28;20482;-75
2021/03/12 01:12:11;;;;;;;3.15;0.98;;;9.50;99.90;;;;;;5014664;28;20042;-75
2021/03/12 01:14:37;;;;;;;3.28;1.20;;;9.50;99.90;;;;;;5013124;28;20382;-75
2021/03/12 01:17:03;;;;;;;5.30;1.33;;;9.50;99.90;;;;;;5014544;28;20371;-75
2021/03/12 01:19:29;;;;;;;6.18;1.60;;;9.50;99.90;;;;;;5029427;28;20042;-75
2021/03/12 01:21:54;;;;;;;4.00;1.40;;;9.50;99.90;;;;;;5014367;28;20061;-75
2021/03/12 01:24:20;;;;;;;3.45;1.38;;;9.40;99.90;;;;;;5014383;28;20026;-75
2021/03/12 01:26:46;;;;;;;4.60;0.70;;;9.50;99.90;;;;;;5013185;28;20057;-75
2021/03/12 01:29:15;;;;;;;3.33;0.93;;;9.40;99.90;;;;;;5014089;28;20062;-75
2021/03/12 01:31:40;;;;;;;2.53;0.70;;;9.50;99.90;;;;;;5014095;28;20041;-75
2021/03/12 01:34:06;;;;;;;4.97;1.10;;;9.50;99.90;;;;;;5013851;28;20030;-75
2021/03/12 01:36:32;;;;;;;4.90;0.80;;;9.50;99.90;;;;;;5013075;28;20075;-75
2021/03/12 01:38:57;;;;;;;5.68;1.05;;;9.60;99.90;;;;;;5014067;28;20498;-75
2021/03/12 01:41:23;;;;;;;4.38;0.90;;;9.60;99.90;;;;;;5014114;28;20034;-75
2021/03/12 01:43:49;;;;;;;5.65;0.90;;;9.70;99.90;;;;;;5014316;28;20026;-75
2021/03/12 01:46:15;;;;;;;3.83;1.00;;;9.70;99.90;;;;;;5013677;28;20394;-75
2021/03/12 01:48:41;;;;;;;5.55;0.90;;;9.70;99.90;;;;;;5012212;28;20117;-75
2021/03/12 01:51:08;;;;;;;2.10;0.93;;;9.70;99.90;;;;;;5013109;28;20054;-75
2021/03/12 01:53:35;;;;;;;3.75;1.00;;;9.60;99.90;;;;;;5013485;28;20113;-75
2021/03/12 01:56:02;;;;;;;4.03;1.08;;;9.70;99.90;;;;;;5013576;28;20494;-75
2021/03/12 01:58:27;;;;;;;3.15;1.02;;;9.70;99.90;;;;;;5013182;28;20028;-75
2021/03/12 02:00:53;;;;;;;12.55;1.80;;;9.70;99.90;;;;;;5013747;28;20030;-75
2021/03/12 02:03:27;;;;;;;5.13;1.35;;;9.70;99.90;;;;;;5013657;28;20030;-75
2021/03/12 02:05:53;;;;;;;3.92;1.10;;;9.70;99.90;;;;;;5012899;28;20129;-76
2021/03/12 02:08:18;;;;;;;6.18;1.05;;;9.70;99.90;;;;;;5013129;28;20498;-75
2021/03/12 02:10:45;;;;;;;5.43;0.95;;;9.60;99.90;;;;;;5006060;28;20030;-75
2021/03/12 02:13:32;;;;;;;3.25;1.15;;;9.60;99.90;;;;;;5013449;28;20101;-75
2021/03/12 02:16:11;;;;;;;3.38;1.15;;;9.70;99.90;;;;;;5013308;28;20141;-75
2021/03/12 02:18:40;;;;;;;7.05;1.48;;;9.70;99.90;;;;;;5013328;28;20033;-75
2021/03/12 02:21:24;;;;;;;4.18;1.30;;;9.70;99.90;;;;;;5012942;28;20034;-75
2021/03/12 02:24:08;;;;;;;5.18;1.08;;;9.60;99.90;;;;;;5013468;28;20026;-75
2021/03/12 02:26:43;;;;;;;8.82;1.25;;;9.60;99.90;;;;;;5013144;28;20080;-75
2021/03/12 02:29:20;;;;;;;5.90;1.00;;;9.50;99.90;;;;;;5013451;28;20041;-75
2021/03/12 02:31:48;;;;;;;4.15;0.88;;;9.40;99.90;;;;;;5013367;28;20036;-75
2021/03/12 02:34:17;;;;;;;4.72;0.73;;;9.40;99.90;;;;;;5012310;28;20815;-75
2021/03/12 02:36:47;;;;;;;4.15;0.90;;;9.40;99.90;;;;;;5011143;28;20061;-75
2021/03/12 02:39:18;;;;;;;4.38;0.68;;;9.20;99.90;;;;;;5013074;28;20076;-75
2021/03/12 02:41:47;;;;;;;3.83;1.65;;;9.20;99.90;;;;;;5012498;28;20047;-75
2021/03/12 02:44:13;;;;;;;4.03;0.70;;;9.20;99.90;;;;;;5013321;28;20112;-75
2021/03/12 02:46:40;;;;;;;4.60;1.08;;;9.20;99.90;;;;;;5012755;28;20489;-75
2021/03/12 02:49:07;;;;;;;4.47;0.82;;;9.20;99.90;;;;;;5012605;28;20061;-75
2021/03/12 02:51:34;;;;;;;11.00;2.10;;;9.30;99.90;;;;;;5012135;28;20050;-75
2021/03/12 02:54:01;;;;;;;5.43;1.10;;;9.20;99.90;;;;;;5012835;28;20026;-75
2021/03/12 02:56:27;;;;;;;3.95;1.65;;;9.20;99.90;;;;;;5011870;28;20090;-75
2021/03/12 02:58:54;;;;;;;12.55;1.25;;;9.30;99.90;;;;;;5012950;28;20037;-75
2021/03/12 03:01:21;;;;;;;6.38;1.40;;;9.30;99.90;;;;;;5012795;28;20029;-75
2021/03/12 03:03:47;;;;;;;4.63;1.25;;;9.20;99.90;;;;;;5011641;28;20034;-75
2021/03/12 03:06:14;;;;;;;7.18;1.13;;;9.30;99.90;;;;;;5012610;28;20036;-75
2021/03/12 03:08:44;;;;;;;7.65;0.90;;;9.10;99.90;;;;;;5011844;28;20045;-75
2021/03/12 03:11:12;;;;;;;11.43;1.77;;;9.20;99.90;;;;;;5012176;28;20022;-75
2021/03/12 03:13:41;;;;;;;4.35;1.23;;;9.20;99.90;;;;;;5012073;28;20033;-75
2021/03/12 03:16:11;;;;;;;6.15;1.80;;;9.10;99.90;;;;;;5012788;28;20577;-75
2021/03/12 03:18:40;;;;;;;3.28;0.90;;;9.20;99.90;;;;;;5011777;28;20034;-75
2021/03/12 03:21:10;;;;;;;3.00;1.15;;;9.00;99.90;;;;;;5012316;28;20072;-75
2021/03/12 03:23:40;;;;;;;3.53;1.08;;;9.00;99.90;;;;;;5012296;28;20516;-75
2021/03/12 03:26:06;;;;;;;9.73;1.20;;;9.10;99.90;;;;;;5012504;28;20038;-75
2021/03/12 03:28:32;;;;;;;4.13;1.15;;;9.10;99.90;;;;;;5012619;28;20092;-75
2021/03/12 03:31:03;;;;;;;6.93;1.10;;;9.00;99.90;;;;;;5012538;28;20105;-75
2021/03/12 03:33:30;;;;;;;5.15;2.10;;;9.00;99.90;;;;;;5011960;28;20034;-75
2021/03/12 03:35:57;;;;;;;12.95;1.85;;;9.00;99.90;;;;;;5012395;28;20022;-75
2021/03/12 03:38:24;;;;;;;7.40;1.75;;;9.00;99.90;;;;;;5012670;28;20471;-75
2021/03/12 03:40:50;;;;;;;12.65;2.90;;;9.10;99.90;;;;;;5012278;28;20022;-75
2021/03/12 03:43:21;;;;;;;9.52;1.10;;;9.10;99.90;;;;;;5012321;28;20057;-75
2021/03/12 03:45:48;;;;;;;9.23;1.48;;;9.10;99.90;;;;;;5011786;28;20378;-75
2021/03/12 03:48:15;;;;;;;3.90;0.85;;;9.20;99.90;;;;;;5011584;28;20109;-75
2021/03/12 03:50:43;;;;;;;7.85;2.08;;;9.20;99.90;;;;;;5014545;28;20050;-75
2021/03/12 03:53:09;;;;;;;9.40;1.35;;;9.10;99.80;;;;;;5016292;28;20552;-75
2021/03/12 03:55:36;;;;;;;4.68;1.83;;;9.20;99.70;;;;;;5016325;28;20038;-75
2021/03/12 03:58:02;;;;;;;6.60;1.38;;;9.20;99.90;;;;;;5016056;28;20028;-75
2021/03/12 04:00:29;;;;;;;5.82;1.20;;;9.20;99.80;;;;;;5015879;28;20022;-75
2021/03/12 04:02:55;;;;;;;3.53;0.88;;;9.20;99.70;;;;;;5015816;28;20120;-75
2021/03/12 04:05:22;;;;;;;7.00;0.80;;;9.20;99.90;;;;;;5016148;28;20030;-75
2021/03/12 04:07:48;;;;;;;5.20;1.30;;;9.10;99.30;;;;;;5016020;28;20058;-75
2021/03/12 04:10:14;;;;;;;7.38;1.10;;;9.10;99.70;;;;;;5006294;28;20471;-75
2021/03/12 04:12:43;;;;;;;4.35;0.93;;;9.10;99.90;;;;;;4996439;28;20106;-75
2021/03/12 04:15:09;;;;;;;5.05;1.27;;;9.20;99.90;;;;;;4996190;28;20042;-75
2021/03/12 04:17:36;;;;;;;5.70;1.38;;;9.10;99.90;;;;;;4996114;28;20022;-75
2021/03/12 04:20:04;;;;;;;3.00;0.90;;;9.00;99.90;;;;;;4996111;28;20030;-75
2021/03/12 04:22:30;;;;;;;4.93;1.35;;;9.00;99.90;;;;;;5007199;28;20022;-75
2021/03/12 04:24:57;;;;;;;7.45;1.20;;;8.90;99.90;;;;;;5015487;28;20119;-75
2021/03/12 04:27:23;;;;;;;6.55;1.02;;;8.90;99.90;;;;;;5015253;28;20022;-75
2021/03/12 04:29:50;;;;;;;5.38;2.03;;;9.00;99.90;;;;;;5015442;28;20564;-75
2021/03/12 04:32:16;;;;;;;2.53;0.90;;;9.00;99.90;;;;;;5015436;28;20030;-75
2021/03/12 04:34:42;;;;;;;6.63;1.20;;;8.90;99.90;;;;;;5015303;28;20026;-75
2021/03/12 04:37:08;;;;;;;2.80;0.85;;;8.90;99.90;;;;;;5014789;28;20367;-75
2021/03/12 04:39:35;;;;;;;8.38;1.73;;;8.90;99.90;;;;;;5015615;28;20026;-75
2021/03/12 04:42:03;;;;;;;8.52;1.25;;;9.00;99.90;;;;;;5015413;28;20060;-75
2021/03/12 04:44:29;;;;;;;8.68;1.60;;;8.90;99.90;;;;;;5015370;28;20065;-75
2021/03/12 04:46:54;;;;;;;5.22;1.10;;;9.00;99.90;;;;;;5014863;28;20512;-75
2021/03/12 04:49:21;;;;;;;5.03;1.17;;;8.90;99.90;;;;;;5014635;28;20038;-75
2021/03/12 04:51:47;;;;;;;5.65;1.30;;;8.90;99.90;;;;;;5015015;28;20038;-75
2021/03/12 04:54:16;;;;;;;3.55;0.73;;;8.90;99.90;;;;;;5014783;28;20037;-75
2021/03/12 04:56:42;;;;;;;4.93;1.13;;;8.80;99.90;;;;;;5014038;28;20061;-75
2021/03/12 04:59:11;;;;;;;4.93;1.33;;;8.70;99.90;;;;;;5012673;28;20021;-75
2021/03/12 05:01:41;;;;;;;7.15;0.95;;;8.70;99.90;;;;;;5004293;28;20022;-75
2021/03/12 05:04:08;;;;;;;7.55;1.58;;;8.70;99.90;;;;;;5000448;28;20026;-75
2021/03/12 05:06:37;;;;;;;4.70;1.10;;;8.70;99.90;;;;;;5010825;28;20068;-75
2021/03/12 05:09:03;;;;;;;7.10;1.23;;;8.70;99.90;;;;;;5004768;28;20570;-75
2021/03/12 05:11:29;;;;;;;5.05;1.15;;;8.80;99.90;;;;;;5006931;28;20113;-75
2021/03/12 05:13:55;;;;;;;6.57;1.42;;;8.80;99.90;;;;;;4996515;28;20388;-75
2021/03/12 05:16:21;;;;;;;9.00;1.20;;;8.70;99.90;;;;;;4997814;28;20057;-75
2021/03/12 05:18:46;;;;;;;8.75;1.00;;;8.80;99.90;;;;;;5008062;28;20036;-75
2021/03/12 05:21:14;;;;;;;5.95;1.17;;;8.80;99.90;;;;;;5012559;28;20513;-75
2021/03/12 05:23:40;;;;;;;9.07;1.40;;;8.80;99.90;;;;;;5012209;28;20339;-75
2021/03/12 05:26:06;;;;;;;3.42;1.20;;;8.80;99.90;;;;;;5007479;28;20034;-75
2021/03/12 05:28:31;;;;;;;3.75;0.75;;;8.80;99.90;;;;;;5012120;28;20375;-75
2021/03/12 05:30:57;;;;;;;2.83;1.45;;;8.70;99.90;;;;;;5007109;28;20038;-75
2021/03/12 05:33:23;;;;;;;6.50;1.25;;;8.70;99.90;;;;;;5003995;28;20025;-75
2021/03/12 05:35:49;;;;;;;7.13;1.38;;;8.80;99.90;;;;;;5025568;28;20504;-75
2021/03/12 05:38:15;;;;;;;5.90;1.42;;;8.80;99.90;;;;;;5011873;28;20580;-75
2021/03/12 05:40:41;;;;;;;3.70;1.38;;;8.80;99.90;;;;;;5007161;28;20022;-75
2021/03/12 05:43:09;;;;;;;7.75;1.10;;;8.90;99.90;;;;;;5011373;28;20044;-75
2021/03/12 05:45:35;;;;;;;5.95;0.93;;;8.90;99.90;;;;;;5011244;28;20034;-75
2021/03/12 05:48:01;;;;;;;4.47;0.90;;;8.90;99.90;;;;;;5011618;28;20045;-75
2021/03/12 05:50:27;;;;;;;5.15;1.20;;;8.90;99.90;;;;;;5013371;28;20099;-75
2021/03/12 05:52:54;;;;;;;4.50;1.67;;;8.80;99.90;;;;;;5012044;28;20108;-75
2021/03/12 05:55:20;;;;;;;7.18;1.30;;;8.80;99.90;;;;;;5012025;28;20092;-75
2021/03/12 05:57:47;;;;;;;5.30;0.95;;;8.70;99.90;;;;;;5013402;28;20097;-75
2021/03/12 06:00:14;;;;;;;4.22;1.60;;;8.70;99.90;;;;;;5011722;28;20057;-75
2021/03/12 06:02:40;;;;;;;5.57;1.58;;;8.60;99.90;;;;;;5012557;28;20113;-75
2021/03/12 06:05:09;;;;;;;6.85;1.42;;;8.70;99.90;;;;;;5011870;28;20121;-75
2021/03/12 06:07:37;;;;;;;8.90;1.58;;;8.70;99.90;;;;;;5002647;28;20032;-74
2021/03/12 06:10:05;;;;;;;6.22;1.38;;;8.70;99.90;;;;;;5012443;28;20038;-75
2021/03/12 06:12:32;;;;;;;6.20;1.08;;;8.60;99.90;;;;;;5012843;28;20053;-74
2021/03/12 06:15:00;;;;;;;8.23;1.20;;;8.60;99.90;;;;;;5012111;28;20042;-75
2021/03/12 06:17:46;;;;;;;5.65;1.20;;;8.70;99.90;;;;;;5013453;28;20014;-78
2021/03/12 06:20:14;;;;;;;4.50;1.77;;;8.60;99.90;;;;;;5012899;28;20034;-78
2021/03/12 06:22:51;;;;;;;6.70;1.50;;;8.40;99.90;;;;;;5012424;28;20022;-75
2021/03/12 06:25:18;;;;;;;4.97;2.08;;;8.30;99.90;;;;;;5013243;28;20102;-75
2021/03/12 06:27:46;;;;;;;4.55;1.20;;;8.30;99.90;;;;;;5012107;28;20025;-75
2021/03/12 06:30:14;;;;;;;6.57;1.40;;;8.20;99.90;;;;;;5010172;28;20041;-75
2021/03/12 06:32:49;;;;;;;6.47;1.20;;;8.20;99.90;;;;;;5011035;28;20064;-75
2021/03/12 06:35:17;;;;;;;8.30;1.25;;;8.20;99.90;;;;;;5012978;28;20038;-75
2021/03/12 06:37:47;;;;;;;7.78;0.90;;;8.00;99.90;;;;;;5013235;28;20032;-75
2021/03/12 06:40:23;;;;;;;8.32;1.40;;;7.90;99.90;;;;;;5012696;28;20061;-75
2021/03/12 06:43:07;;;;;;;8.80;1.42;;;7.90;99.90;;;;;;5012882;28;20036;-74
2021/03/12 06:45:54;;;;;;;3.72;1.00;;;7.70;99.90;;;;;;5013140;28;20028;-74
2021/03/12 06:48:24;;;;;;;4.30;1.23;;;7.70;99.90;;;;;;5013138;28;20064;-74
2021/03/12 06:50:52;;;;;;;6.97;0.98;;;7.70;99.90;;;;;;5004620;28;20052;-75
2021/03/12 06:53:18;;;;;;;6.38;1.70;;;7.80;99.90;;;;;;5010034;28;20068;-75
2021/03/12 06:55:44;;;;;;;4.47;1.17;;;7.80;99.90;;;;;;5012769;28;20518;-75
2021/03/12 06:58:10;;;;;;;7.13;1.00;;;7.70;99.90;;;;;;5010887;28;20033;-75
2021/03/12 07:00:36;;;;;;;5.18;1.17;;;7.70;99.90;;;;;;5012619;28;20029;-74
2021/03/12 07:03:20;;;;;;;6.38;2.42;;;7.80;99.90;;;;;;5012740;28;20054;-75
2021/03/12 07:06:00;;;;;;;9.43;2.58;;;7.60;99.90;;;;;;5012840;28;20022;-75
2021/03/12 07:08:34;;;;;;;6.05;0.90;;;7.70;99.90;;;;;;5012519;28;20120;-75
2021/03/12 07:11:00;;;;;;;4.40;1.25;;;7.70;99.90;;;;;;5012334;28;20029;-73
2021/03/12 07:13:26;;;;;;;7.43;1.00;;;7.60;99.90;;;;;;5012625;28;20079;-74
2021/03/12 07:15:56;;;;;;;7.85;1.77;;;7.70;99.90;;;;;;5012666;28;20033;-75
2021/03/12 07:18:22;;;;;;;6.53;0.77;;;7.80;99.90;;;;;;5012616;28;20108;-75
2021/03/12 07:20:49;;;;;;;4.30;1.05;;;7.80;99.90;;;;;;5012201;28;20284;-75
2021/03/12 07:23:20;;;;;;;3.72;1.15;;;7.90;99.90;;;;;;5011747;28;20056;-75
2021/03/12 07:25:47;;;;;;;3.85;0.70;;;7.90;99.90;;;;;;5011338;28;20022;-75
2021/03/12 07:28:15;;;;;;;4.03;1.17;;;8.00;99.90;;;;;;5011360;28;20577;-75
2021/03/12 07:30:43;;;;;;;6.68;0.93;;;8.00;99.90;;;;;;5012421;28;20026;-75
2021/03/12 07:33:09;;;;;;;7.88;1.77;;;8.10;99.90;;;;;;5011506;28;20033;-75
2021/03/12 07:35:37;;;;;;;3.13;0.70;;;8.20;99.90;;;;;;5011910;28;20164;-75
2021/03/12 07:38:06;;;;;;;3.72;1.48;;;8.20;99.90;;;;;;5012406;28;20030;-75
2021/03/12 07:40:34;;;;;;;4.60;0.80;;;8.10;99.90;;;;;;5010988;28;20033;-75
2021/03/12 07:43:00;;;;;;;4.68;1.10;;;8.10;99.90;;;;;;5011604;28;20025;-75
2021/03/12 07:45:26;;;;;;;4.13;1.08;;;8.20;99.90;;;;;;5012500;28;20037;-75
2021/03/12 07:47:53;;;;;;;3.20;1.42;;;8.10;99.90;;;;;;5012054;28;20030;-75
2021/03/12 07:50:29;;;;;;;7.13;0.95;;;8.20;99.90;;;;;;5011610;28;20179;-75
2021/03/12 07:52:54;;;;;;;4.57;0.77;;;8.10;99.90;;;;;;5012254;28;20049;-73
2021/03/12 07:55:35;;;;;;;5.13;1.35;;;8.30;99.90;;;;;;5011232;28;20482;-74
2021/03/12 07:58:08;;;;;;;3.80;1.67;;;8.30;99.90;;;;;;5012097;28;20457;-75
2021/03/12 08:00:52;;;;;;;5.60;2.00;;;8.30;99.90;;;;;;5012317;28;20112;-75
2021/03/12 08:03:28;;;;;;;5.85;1.15;;;8.30;99.90;;;;;;5011960;28;20410;-75
2021/03/12 08:05:54;;;;;;;6.13;1.25;;;8.30;99.90;;;;;;5012243;28;20076;-75
2021/03/12 08:08:35;;;;;;;5.28;1.73;;;8.40;99.90;;;;;;5011936;28;20034;-74
2021/03/12 08:11:33;;;;;;;6.03;1.27;;;8.40;99.90;;;;;;5011678;28;20417;-75
2021/03/12 08:14:17;;;;;;;7.22;0.90;;;8.50;99.90;;;;;;4995772;28;20034;-74
2021/03/12 08:16:58;;;;;;;5.07;1.25;;;8.60;99.90;;;;;;5005427;28;20088;-75
2021/03/12 08:19:36;;;;;;;3.40;1.60;;;8.80;99.90;;;;;;5011359;28;20030;-75
2021/03/12 08:22:28;;;;;;;3.33;1.05;;;8.90;99.90;;;;;;5012053;28;20022;-74
2021/03/12 08:24:56;;;;;;;5.07;0.73;;;8.70;99.90;;;;;;5008657;28;20042;-74
2021/03/12 08:27:47;;;;;;;5.43;1.42;;;8.80;99.90;;;;;;5011782;28;20029;-74
2021/03/12 08:30:25;;;;;;;4.20;1.15;;;8.70;99.90;;;;;;5011658;28;20045;-75
2021/03/12 08:32:55;;;;;;;5.13;1.10;;;8.50;99.90;;;;;;4992327;28;20370;-75
2021/03/12 08:35:33;;;;;;;2.45;0.55;;;8.40;99.90;;;;;;5010011;28;20049;-75
2021/03/12 08:37:59;;;;;;;3.58;0.80;;;8.50;99.90;;;;;;5015017;28;20072;-75
2021/03/12 08:40:26;;;;;;;2.58;0.90;;;8.50;99.90;;;;;;5014597;28;20030;-75
2021/03/12 08:43:15;;;;;;;4.00;1.13;;;8.50;99.90;;;;;;5015231;28;20079;-75
2021/03/12 08:45:47;;;;;;;4.27;0.70;;;8.60;99.90;;;;;;5014867;28;20030;-75
2021/03/12 08:48:18;;;;;;;2.83;0.40;;;8.60;99.90;;;;;;5014698;28;20284;-75
2021/03/12 08:50:56;;;;;;;5.10;1.00;;;8.70;99.90;;;;;;5014700;28;20514;-75
2021/03/12 08:53:24;;;;;;;5.95;1.33;;;8.60;99.90;;;;;;5014624;28;20445;-75
2021/03/12 08:55:52;;;;;;;1.38;0.77;;;8.60;99.90;;;;;;5015266;28;20053;-75
2021/03/12 08:58:22;;;;;;;3.45;0.85;;;8.50;99.90;;;;;;5015140;28;20056;-75
2021/03/12 09:00:50;;;;;;;3.78;0.82;;;8.50;99.90;;;;;;5015106;28;20084;-75
2021/03/12 09:03:23;;;;;;;6.65;1.70;;;8.40;99.90;;;;;;5015139;28;20034;-75
2021/03/12 09:06:09;;;;;;;5.30;1.23;;;8.50;99.90;;;;;;5014862;28;20054;-75
2021/03/12 09:08:37;;;;;;;2.55;0.40;;;8.40;99.90;;;;;;5014603;28;20026;-75
2021/03/12 09:11:05;;;;;;;4.88;1.20;;;8.60;99.90;;;;;;4998786;28;20111;-75
2021/03/12 09:13:38;;;;;;;4.40;0.60;;;8.80;99.90;;;;;;4998998;28;20017;-75
2021/03/12 09:16:07;;;;;;;2.65;0.65;;;8.90;99.90;;;;;;5014610;28;20026;-75
2021/03/12 09:18:34;;;;;;;1.23;0.40;;;8.70;99.90;;;;;;5029806;28;20034;-75
2021/03/12 09:21:03;;;;;;;2.25;0.82;;;8.70;99.90;;;;;;5014676;28;20026;-75
2021/03/12 09:23:49;;;;;;;4.50;0.90;;;8.80;99.90;;;;;;5014380;28;20026;-75
2021/03/12 09:26:35;;;;;;;2.85;0.85;;;8.90;99.90;;;;;;5014599;28;20022;-75
2021/03/12 09:29:04;;;;;;;4.38;0.82;;;9.40;99.90;;;;;;5014347;28;20022;-75
2021/03/12 09:31:32;;;;;;;2.00;0.80;;;9.60;99.90;;;;;;5014327;28;20014;-75
2021/03/12 09:34:00;;;;;;;2.17;0.70;;;9.50;99.50;;;;;;5014397;28;20042;-75
2021/03/12 09:36:29;;;;;;;4.18;1.73;;;9.70;99.90;;;;;;5014101;28;20022;-75
2021/03/12 09:39:03;;;;;;;1.83;0.57;;;9.60;99.90;;;;;;5014389;28;20359;-75
2021/03/12 09:41:29;;;;;;;2.47;0.65;;;9.70;99.90;;;;;;5014434;28;20050;-75
2021/03/12 09:44:11;;;;;;;3.95;1.40;;;9.80;99.90;;;;;;5014246;28;20494;-75
2021/03/12 09:46:40;;;;;;;4.50;0.98;;;9.80;99.90;;;;;;5013188;28;20030;-75
2021/03/12 09:49:12;;;;;;;1.88;0.70;;;9.60;99.90;;;;;;5014011;28;20038;-75
2021/03/12 09:51:40;;;;;;;2.28;1.23;;;9.90;99.80;;;;;;5013056;28;20092;-75
2021/03/12 09:54:07;;;;;;;1.95;0.57;;;10.10;98.50;;;;;;5014106;28;20474;-75
2021/03/12 09:56:34;;;;;;;3.17;0.75;;;10.00;97.30;;;;;;5013353;28;20022;-75
2021/03/12 09:59:02;;;;;;;3.30;0.80;;;9.60;99.60;;;;;;5013810;28;20375;-75
2021/03/12 10:01:38;;;;;;;7.35;1.10;;;9.50;98.70;;;;;;5013846;28;20052;-75
2021/03/12 10:04:46;;;;;;;4.35;1.38;;;9.40;98.20;;;;;;5013489;28;20532;-76
2021/03/12 10:07:14;;;;;;;2.65;0.95;;;9.50;99.70;;;;;;5012149;28;20458;-76
2021/03/12 10:09:49;;;;;;;1.80;0.93;;;9.60;99.50;;;;;;5013586;28;20042;-75
2021/03/12 10:12:19;;;;;;;2.92;0.70;;;9.60;97.90;;;;;;5013238;28;20060;-76
2021/03/12 10:14:47;;;;;;;1.92;0.52;;;9.60;97.40;;;;;;5012353;28;20037;-75
2021/03/12 10:17:15;;;;;;;2.58;0.63;;;9.50;94.70;;;;;;5010705;28;20040;-75
2021/03/12 10:19:42;;;;;;;2.95;0.50;;;9.30;97.20;;;;;;5002311;28;20478;-75
2021/03/12 10:22:20;;;;;;;2.35;0.40;;;9.10;97.20;;;;;;5002366;28;20141;-75
2021/03/12 10:24:59;;;;;;;3.13;0.65;;;9.10;98.90;;;;;;4993831;28;20069;-75
2021/03/12 10:27:29;;;;;;;4.75;1.20;;;9.00;99.00;;;;;;4993237;28;20149;-75
2021/03/12 10:29:55;;;;;;;14.25;1.45;;;9.00;97.90;;;;;;4992606;28;20502;-76
2021/03/12 10:32:22;;;;;;;3.03;0.80;;;8.80;98.10;;;;;;4992747;28;20026;-76
2021/03/12 10:34:50;;;;;;;4.90;1.00;;;8.80;99.90;;;;;;4997730;28;20438;-76
2021/03/12 10:37:19;;;;;;;4.20;0.88;;;8.90;99.10;;;;;;5012160;28;20022;-76
2021/03/12 10:39:53;;;;;;;5.10;1.27;;;8.80;98.70;;;;;;5012393;28;20704;-76
2021/03/12 10:42:31;;;;;;;3.80;1.42;;;9.10;99.90;;;;;;5027994;28;20072;-76
2021/03/12 10:45:04;;;;;;;3.95;0.93;;;9.20;99.80;;;;;;5012941;28;20386;-76
2021/03/12 10:47:29;;;;;;;5.18;0.93;;;9.10;97.70;;;;;;5013185;28;20093;-76
2021/03/12 10:49:56;;;;;;;6.70;1.10;;;9.30;99.30;;;;;;5012579;28;20120;-76
2021/03/12 10:52:30;;;;;;;3.72;1.02;;;9.60;96.60;;;;;;5012997;28;20486;-75
2021/03/12 10:55:14;;;;;;;3.72;0.85;;;9.90;96.80;;;;;;5012602;28;20049;-76
2021/03/12 10:57:49;;;;;;;6.47;1.05;;;10.40;96.00;;;;;;5012609;28;20513;-76
2021/03/12 11:00:21;;;;;;;4.63;1.02;;;10.40;91.60;;;;;;5012507;28;20116;-76
2021/03/12 11:02:47;;;;;;;5.78;1.00;;;10.60;92.60;;;;;;5012646;28;20029;-76
2021/03/12 11:05:16;;;;;;;2.42;0.68;;;10.80;82.70;;;;;;5012583;28;20157;-75
2021/03/12 11:07:42;;;;;;;2.13;0.80;;;11.10;85.60;;;;;;5012766;28;20068;-75
2021/03/12 11:10:09;;;;;;;3.13;1.13;;;11.20;86.80;;;;;;5012623;28;20040;-75
2021/03/12 11:12:47;;;;;;;4.07;1.15;;;11.00;82.10;;;;;;5012643;28;20033;-75
2021/03/12 11:15:21;;;;;;;6.55;1.38;;;11.10;81.90;;;;;;5012758;28;20030;-76
2021/03/12 11:17:48;;;;;;;2.67;1.10;;;11.30;80.20;;;;;;5012172;28;20105;-76
2021/03/12 11:20:21;;;;;;;2.83;1.20;;;11.40;80.30;;;;;;5012475;28;20119;-76
2021/03/12 11:22:49;;;;;;;3.80;0.82;;;11.60;81.00;;;;;;5012558;28;20088;-76
2021/03/12 11:25:16;;;;;;;2.55;0.80;;;13.10;79.90;;;;;;5012444;28;20040;-75
2021/03/12 11:27:43;;;;;;;3.38;0.80;;;13.20;70.80;;;;;;5012694;28;20053;-75
2021/03/12 11:30:12;;;;;;;7.45;0.60;;;14.90;63.90;;;;;;5012499;28;20034;-76
2021/03/12 11:32:39;;;;;;;3.13;0.90;;;15.00;64.50;;;;;;5012244;28;20045;-76
2021/03/12 11:35:07;;;;;;;3.30;1.45;;;17.40;56.90;;;;;;5012083;28;20030;-76
2021/03/12 11:37:33;;;;;;;2.10;0.73;;;18.30;53.30;;;;;;5012115;28;20057;-76
2021/03/12 11:39:59;;;;;;;5.68;1.00;;;19.50;53.60;;;;;;5012225;28;20442;-76
2021/03/12 11:42:26;;;;;;;3.47;0.80;;;17.50;54.70;;;;;;5012561;28;20121;-75
2021/03/12 11:44:51;;;;;;;2.28;0.47;;;16.80;56.80;;;;;;5012509;28;20366;-75
2021/03/12 11:47:17;;;;;;;2.45;0.85;;;15.50;56.60;;;;;;5011627;28;20030;-76
2021/03/12 11:49:47;;;;;;;3.53;1.08;;;15.60;61.50;;;;;;5012280;28;20568;-76
2021/03/12 11:52:14;;;;;;;2.60;1.33;;;15.10;56.30;;;;;;5012378;28;20429;-75
2021/03/12 11:54:40;;;;;;;1.52;0.80;;;17.90;55.20;;;;;;5012150;28;20041;-75
2021/03/12 11:57:06;;;;;;;3.60;1.35;;;19.50;51.50;;;;;;5011794;28;20022;-76
2021/03/12 11:59:32;;;;;;;3.72;1.73;;;19.70;50.70;;;;;;5012517;28;20026;-76
2021/03/12 12:01:59;;;;;;;8.10;1.10;;;21.80;44.70;;;;;;5011914;28;20041;-76
2021/03/12 12:04:27;;;;;;;10.48;1.60;;;20.80;42.20;;;;;;5012301;28;20030;-76
2021/03/12 12:06:54;;;;;;;4.22;1.33;;;19.50;44.70;;;;;;5012284;28;20022;-76
2021/03/12 12:09:20;;;;;;;2.38;1.20;;;22.60;44.00;;;;;;5011866;28;20478;-76
2021/03/12 12:11:46;;;;;;;2.97;1.30;;;22.70;38.70;;;;;;5015041;28;20079;-77
2021/03/12 12:14:12;;;;;;;3.92;1.33;;;20.20;44.00;;;;;;5015482;28;20069;-76
2021/03/12 12:16:38;;;;;;;3.35;1.13;;;18.40;50.50;;;;;;5015590;28;20049;-76
2021/03/12 12:19:11;;;;;;;2.42;0.95;;;17.40;50.80;;;;;;5015893;28;20030;-76
2021/03/12 12:21:37;;;;;;;2.78;0.80;;;15.70;52.10;;;;;;5016068;28;20026;-76
2021/03/12 12:24:04;;;;;;;2.60;0.80;;;14.60;57.10;;;;;;5015196;28;20030;-75
2021/03/12 12:26:31;;;;;;;3.10;1.38;;;13.90;58.80;;;;;;5015775;28;20026;-76
2021/03/12 12:28:57;;;;;;;3.38;0.85;;;13.50;60.80;;;;;;5015714;28;20170;-76
2021/03/12 12:31:23;;;;;;;3.55;0.80;;;13.40;63.00;;;;;;5015427;28;20109;-75
2021/03/12 12:33:49;;;;;;;4.05;1.52;;;13.00;65.40;;;;;;5015742;28;20155;-76
2021/03/12 12:36:15;;;;;;;3.72;0.95;;;12.70;62.80;;;;;;5015329;28;20026;-76
2021/03/12 12:38:40;;;;;;;2.95;0.80;;;12.30;62.30;;;;;;5015713;28;20104;-76
2021/03/12 12:41:06;;;;;;;3.45;1.20;;;12.00;65.60;;;;;;5015520;28;20487;-76
2021/03/12 12:43:32;;;;;;;5.70;0.98;;;12.40;63.20;;;;;;5015504;28;20392;-76
2021/03/12 12:45:58;;;;;;;1.92;0.70;;;12.60;63.80;;;;;;5015004;28;20054;-76
2021/03/12 12:48:24;;;;;;;4.15;0.90;;;13.30;63.60;;;;;;5015347;28;20026;-76
2021/03/12 12:50:50;;;;;;;2.45;0.80;;;12.90;60.00;;;;;;5015367;28;20130;-75
2021/03/12 12:53:16;;;;;;;3.28;1.08;;;12.50;61.60;;;;;;5015118;28;20098;-76
2021/03/12 12:55:42;;;;;;;4.68;1.05;;;12.40;64.10;;;;;;5014406;28;20041;-76
2021/03/12 12:58:08;;;;;;;5.30;0.90;;;12.50;63.80;;;;;;5015002;28;20108;-76
2021/03/12 13:00:34;;;;;;;2.42;0.90;;;13.60;60.80;;;;;;5014740;28;20071;-75
2021/03/12 13:02:59;;;;;;;4.38;0.85;;;14.70;56.20;;;;;;5015162;28;20432;-76
2021/03/12 13:05:25;;;;;;;4.97;1.67;;;15.40;56.80;;;;;;5014762;28;20087;-76